createdAt,value
2023-09-25T00:08:09.295Z,101386.50
2023-09-25T00:10:37.134Z,101376.22
2023-09-25T00:13:03.739Z,101383.25
2023-09-25T00:15:30.182Z,101380.34
2023-09-25T00:17:58.428Z,101375.97
2023-09-25T00:20:25.642Z,101372.03
2023-09-25T00:22:56.844Z,101378.47
2023-09-25T00:25:26.229Z,101381.84
2023-09-25T00:27:52.754Z,101385.91
2023-09-25T00:30:19.608Z,101388.66
2023-09-25T00:32:46.359Z,101388.91
2023-09-25T00:35:13.240Z,101396.19
2023-09-25T00:37:40.870Z,101399.09
2023-09-25T00:40:14.627Z,101385.81
2023-09-25T00:42:42.902Z,101397.53
2023-09-25T00:45:10.995Z,101397.00
2023-09-25T00:47:38.827Z,101393.44
2023-09-25T00:50:06.925Z,101377.88
2023-09-25T00:52:35.431Z,101379.88
2023-09-25T00:55:02.468Z,101383.00
2023-09-25T00:57:29.483Z,101379.16
2023-09-25T00:59:56.750Z,101381.31
2023-09-25T01:02:23.673Z,101377.13
2023-09-25T01:04:50.254Z,101374.69
2023-09-25T01:07:20.127Z,101372.13
2023-09-25T01:10:06.285Z,101377.06
2023-09-25T01:12:33.803Z,101379.63
2023-09-25T01:15:00.286Z,101378.78
2023-09-25T01:17:26.892Z,101386.50
2023-09-25T01:19:54.082Z,101387.69
2023-09-25T01:22:20.452Z,101380.22
2023-09-25T01:24:46.934Z,101376.00
2023-09-25T01:27:13.704Z,101382.22
2023-09-25T01:29:40.115Z,101373.56
2023-09-25T01:32:06.562Z,101371.00
2023-09-25T01:34:32.935Z,101373.22
2023-09-25T01:36:59.397Z,101369.56
2023-09-25T01:39:25.838Z,101377.84
2023-09-25T01:41:52.287Z,101368.75
2023-09-25T01:44:18.667Z,101370.56
2023-09-25T01:46:45.048Z,101369.06
2023-09-25T01:49:11.469Z,101369.81
2023-09-25T01:51:37.976Z,101376.75
2023-09-25T01:54:05.208Z,101360.06
2023-09-25T01:56:31.630Z,101359.41
2023-09-25T01:58:57.983Z,101350.84
2023-09-25T02:01:24.382Z,101355.13
2023-09-25T02:03:51.619Z,101351.28
2023-09-25T02:06:18.168Z,101342.28
2023-09-25T02:08:44.613Z,101346.66
2023-09-25T02:11:10.983Z,101348.41
2023-09-25T02:13:37.320Z,101355.34
2023-09-25T02:16:03.944Z,101344.09
2023-09-25T02:18:31.017Z,101351.50
2023-09-25T02:20:57.568Z,101347.53
2023-09-25T02:23:23.925Z,101355.78
2023-09-25T02:25:50.382Z,101360.38
2023-09-25T02:28:16.804Z,101350.56
2023-09-25T02:30:43.221Z,101339.63
2023-09-25T02:33:10.999Z,101344.97
2023-09-25T02:35:38.087Z,101343.34
2023-09-25T02:38:06.075Z,101336.28
2023-09-25T02:40:32.970Z,101337.38
2023-09-25T02:42:59.442Z,101330.19
2023-09-25T02:45:25.842Z,101328.38
2023-09-25T02:47:52.328Z,101332.63
2023-09-25T02:50:18.872Z,101321.38
2023-09-25T02:52:45.422Z,101334.59
2023-09-25T02:55:12.972Z,101331.56
2023-09-25T02:57:39.366Z,101330.59
2023-09-25T03:00:11.827Z,101330.72
2023-09-25T03:02:38.989Z,101324.72
2023-09-25T03:05:08.924Z,101328.81
2023-09-25T03:07:35.382Z,101329.44
2023-09-25T03:10:01.939Z,101319.03
2023-09-25T03:12:29.672Z,101326.66
2023-09-25T03:14:56.113Z,101319.91
2023-09-25T03:17:22.484Z,101325.25
2023-09-25T03:19:51.864Z,101326.75
2023-09-25T03:22:18.424Z,101321.97
2023-09-25T03:24:44.911Z,101324.06
2023-09-25T03:27:11.331Z,101330.72
2023-09-25T03:29:37.825Z,101327.84
2023-09-25T03:32:04.200Z,101327.84
2023-09-25T03:34:30.614Z,101335.53
2023-09-25T03:36:56.967Z,101333.81
2023-09-25T03:39:23.374Z,101336.28
2023-09-25T03:41:49.748Z,101337.06
2023-09-25T03:44:16.164Z,101333.84
2023-09-25T03:46:42.535Z,101326.00
2023-09-25T03:49:08.996Z,101341.22
2023-09-25T03:51:35.793Z,101336.28
2023-09-25T03:54:02.510Z,101336.59
2023-09-25T03:56:32.882Z,101331.66
2023-09-25T03:58:59.262Z,101336.59
2023-09-25T04:01:26.650Z,101327.28
2023-09-25T04:03:53.627Z,101323.06
2023-09-25T04:06:20.211Z,101316.66
2023-09-25T04:08:46.653Z,101324.59
2023-09-25T04:11:13.213Z,101327.47
2023-09-25T04:13:41.063Z,101329.19
2023-09-25T04:16:07.417Z,101331.84
2023-09-25T04:18:33.884Z,101340.66
2023-09-25T04:21:03.822Z,101340.91
2023-09-25T04:23:30.204Z,101345.53
2023-09-25T04:26:01.503Z,101345.94
2023-09-25T04:28:31.145Z,101340.97
2023-09-25T04:31:01.031Z,101343.75
2023-09-25T04:33:28.153Z,101337.72
2023-09-25T04:35:59.866Z,101340.50
2023-09-25T04:38:27.354Z,101338.59
2023-09-25T04:40:53.775Z,101338.69
2023-09-25T04:43:23.534Z,101340.31
2023-09-25T04:45:53.646Z,101339.00
2023-09-25T04:48:20.472Z,101352.66
2023-09-25T04:50:47.079Z,101342.66
2023-09-25T04:53:14.704Z,101341.38
2023-09-25T04:55:41.697Z,101339.41
2023-09-25T04:58:08.971Z,101335.97
2023-09-25T05:00:35.572Z,101336.72
2023-09-25T05:03:02.146Z,101339.31
2023-09-25T05:05:29.169Z,101345.50
2023-09-25T05:07:57.627Z,101352.78
2023-09-25T05:10:27.237Z,101351.81
2023-09-25T05:12:54.723Z,101350.22
2023-09-25T05:15:21.859Z,101350.31
2023-09-25T05:17:49.194Z,101361.66
2023-09-25T05:20:20.982Z,101360.47
2023-09-25T05:22:50.334Z,101360.78
2023-09-25T05:25:18.115Z,101364.69
2023-09-25T05:27:48.523Z,101354.44
2023-09-25T05:30:15.291Z,101355.75
2023-09-25T05:32:44.654Z,101362.19
2023-09-25T05:35:11.260Z,101365.72
2023-09-25T05:37:38.469Z,101362.91
2023-09-25T05:40:11.901Z,101370.84
2023-09-25T05:42:40.233Z,101368.44
2023-09-25T05:45:07.779Z,101368.34
2023-09-25T05:47:34.829Z,101369.53
2023-09-25T05:50:01.673Z,101378.41
2023-09-25T05:52:28.086Z,101372.84
2023-09-25T05:54:54.431Z,101373.19
2023-09-25T05:57:20.947Z,101377.28
2023-09-25T05:59:47.510Z,101376.03
2023-09-25T06:02:13.930Z,101374.34
2023-09-25T06:04:40.394Z,101373.00
2023-09-25T06:07:07.419Z,101371.63
2023-09-25T06:09:34.493Z,101367.75
2023-09-25T06:12:01.998Z,101376.13
2023-09-25T06:14:32.113Z,101378.28
2023-09-25T06:17:00.309Z,101376.88
2023-09-25T06:19:27.775Z,101381.91
2023-09-25T06:21:54.886Z,101378.06
2023-09-25T06:24:23.239Z,101373.66
2023-09-25T06:26:50.709Z,101376.03
2023-09-25T06:29:17.654Z,101377.53
2023-09-25T06:31:59.855Z,101385.66
2023-09-25T06:34:28.074Z,101386.94
2023-09-25T06:36:55.229Z,101392.59
2023-09-25T06:39:22.509Z,101388.63
2023-09-25T06:41:49.000Z,101391.41
2023-09-25T06:44:15.399Z,101379.38
2023-09-25T06:46:44.284Z,101382.38
2023-09-25T06:49:10.981Z,101388.53
2023-09-25T06:51:37.625Z,101391.38
2023-09-25T06:54:04.294Z,101392.81
2023-09-25T06:56:30.722Z,101399.44
2023-09-25T06:58:57.569Z,101395.22
2023-09-25T07:01:24.833Z,101402.97
2023-09-25T07:03:51.491Z,101388.31
2023-09-25T07:06:18.222Z,101390.22
2023-09-25T07:08:44.855Z,101389.00
2023-09-25T07:11:11.298Z,101389.91
2023-09-25T07:13:37.737Z,101386.63
2023-09-25T07:16:05.878Z,101392.25
2023-09-25T07:18:32.512Z,101388.09
2023-09-25T07:20:58.982Z,101400.06
2023-09-25T07:23:25.514Z,101387.34
2023-09-25T07:26:00.482Z,101396.13
2023-09-25T07:28:26.891Z,101393.59
2023-09-25T07:30:53.344Z,101398.22
2023-09-25T07:33:20.040Z,101397.94
2023-09-25T07:35:46.415Z,101399.78
2023-09-25T07:38:12.822Z,101405.56
2023-09-25T07:40:39.177Z,101396.75
2023-09-25T07:43:05.706Z,101402.53
2023-09-25T07:45:33.487Z,101395.16
2023-09-25T07:48:00.431Z,101389.25
2023-09-25T07:50:27.053Z,101398.38
2023-09-25T07:52:55.565Z,101402.75
2023-09-25T07:55:22.782Z,101399.41
2023-09-25T07:57:50.849Z,101394.06
2023-09-25T08:00:27.090Z,101397.88
2023-09-25T08:02:54.074Z,101399.06
2023-09-25T08:05:20.762Z,101398.53
2023-09-25T08:07:48.004Z,101395.84
2023-09-25T08:10:14.910Z,101398.56
2023-09-25T08:12:42.349Z,101398.03
2023-09-25T08:15:09.316Z,101406.53
2023-09-25T08:17:35.787Z,101410.84
2023-09-25T08:20:02.438Z,101403.78
2023-09-25T08:22:28.786Z,101404.34
2023-09-25T08:24:55.283Z,101398.72
2023-09-25T08:27:22.018Z,101407.81
2023-09-25T08:29:48.943Z,101411.38
2023-09-25T08:32:15.769Z,101407.31
2023-09-25T08:34:42.647Z,101411.84
2023-09-25T08:37:09.066Z,101418.94
2023-09-25T08:39:35.497Z,101406.13
2023-09-25T08:42:02.217Z,101399.41
2023-09-25T08:44:28.668Z,101405.09
2023-09-25T08:46:55.567Z,101405.25
2023-09-25T08:49:23.800Z,101399.19
2023-09-25T08:51:50.798Z,101402.13
2023-09-25T08:54:19.048Z,101397.38
2023-09-25T08:56:46.404Z,101399.34
2023-09-25T08:59:12.959Z,101398.09
2023-09-25T09:01:39.536Z,101390.25
2023-09-25T09:04:07.782Z,101395.59
2023-09-25T09:06:34.453Z,101390.25
2023-09-25T09:09:01.007Z,101387.72
2023-09-25T09:11:28.262Z,101392.81
2023-09-25T09:13:55.341Z,101390.34
2023-09-25T09:16:21.907Z,101387.88
2023-09-25T09:18:49.031Z,101386.63
2023-09-25T09:21:25.667Z,101380.56
2023-09-25T09:23:55.131Z,101386.06
2023-09-25T09:26:21.965Z,101384.28
2023-09-25T09:28:48.802Z,101379.53
2023-09-25T09:31:15.767Z,101381.75
2023-09-25T09:33:42.914Z,101383.19
2023-09-25T09:36:14.210Z,101384.81
2023-09-25T09:38:42.254Z,101382.47
2023-09-25T09:41:12.390Z,101385.84
2023-09-25T09:43:39.760Z,101378.94
2023-09-25T09:46:07.601Z,101380.88
2023-09-25T09:48:36.521Z,101382.75
2023-09-25T09:51:06.831Z,101368.16
2023-09-25T09:53:37.612Z,101370.06
2023-09-25T09:56:04.168Z,101374.50
2023-09-25T09:58:32.108Z,101368.19
2023-09-25T10:01:01.297Z,101367.34
2023-09-25T10:03:30.384Z,101377.56
2023-09-25T10:05:57.313Z,101372.06
2023-09-25T10:08:23.761Z,101368.19
2023-09-25T10:10:53.178Z,101358.97
2023-09-25T10:13:26.796Z,101364.25
2023-09-25T10:15:58.220Z,101360.81
2023-09-25T10:18:29.827Z,101354.63
2023-09-25T10:21:10.000Z,101347.69
2023-09-25T10:23:40.000Z,101349.88
2023-09-25T10:26:19.481Z,101347.03
2023-09-25T10:28:46.415Z,101344.75
2023-09-25T10:31:20.914Z,101352.31
2023-09-25T10:34:01.432Z,101348.22
2023-09-25T10:36:39.103Z,101346.66
2023-09-25T10:39:09.727Z,101343.28
2023-09-25T10:41:38.969Z,101338.75
2023-09-25T10:44:06.458Z,101333.91
2023-09-25T10:46:33.065Z,101341.91
2023-09-25T10:48:59.701Z,101337.91
2023-09-25T10:51:26.182Z,101337.41
2023-09-25T10:53:52.751Z,101343.84
2023-09-25T10:56:19.308Z,101335.84
2023-09-25T10:58:49.059Z,101337.09
2023-09-25T11:01:15.796Z,101322.31
2023-09-25T11:03:43.000Z,101329.28
2023-09-25T11:06:09.551Z,101325.34
2023-09-25T11:08:36.039Z,101325.28
2023-09-25T11:11:03.849Z,101325.06
2023-09-25T11:13:30.335Z,101328.44
2023-09-25T11:15:57.312Z,101318.97
2023-09-25T11:18:23.850Z,101321.59
2023-09-25T11:20:52.270Z,101325.41
2023-09-25T11:23:21.508Z,101317.47
2023-09-25T11:25:51.811Z,101323.06
2023-09-25T11:28:21.375Z,101325.63
2023-09-25T11:30:48.994Z,101319.69
2023-09-25T11:33:20.603Z,101315.50
2023-09-25T11:35:50.414Z,101313.09
2023-09-25T11:38:21.618Z,101306.34
2023-09-25T11:40:48.636Z,101312.44
2023-09-25T11:43:15.022Z,101311.94
2023-09-25T11:45:42.125Z,101297.56
2023-09-25T11:48:12.780Z,101300.22
2023-09-25T11:50:40.557Z,101292.25
2023-09-25T11:53:07.371Z,101293.78
2023-09-25T11:55:34.224Z,101295.41
2023-09-25T11:58:01.257Z,101299.16
2023-09-25T12:00:31.674Z,101294.66
2023-09-25T12:02:59.245Z,101289.72
2023-09-25T12:05:26.670Z,101279.69
2023-09-25T12:07:53.170Z,101277.25
2023-09-25T12:10:20.669Z,101270.78
2023-09-25T12:12:48.551Z,101263.06
2023-09-25T12:15:16.463Z,101268.19
2023-09-25T12:17:46.879Z,101271.84
2023-09-25T12:20:17.149Z,101269.97
2023-09-25T12:22:47.265Z,101264.09
2023-09-25T12:25:17.475Z,101265.38
2023-09-25T12:27:46.415Z,101250.81
2023-09-25T12:30:18.499Z,101253.47
2023-09-25T12:32:47.211Z,101248.84
2023-09-25T12:35:16.178Z,101249.63
2023-09-25T12:37:46.706Z,101257.13
2023-09-25T12:40:15.024Z,101242.19
2023-09-25T12:42:53.521Z,101254.38
2023-09-25T12:45:22.697Z,101241.22
2023-09-25T12:47:49.450Z,101244.63
2023-09-25T12:50:15.876Z,101240.25
2023-09-25T12:52:42.304Z,101248.56
2023-09-25T12:55:09.970Z,101243.88
2023-09-25T12:57:36.488Z,101251.66
2023-09-25T13:00:05.183Z,101239.13
2023-09-25T13:02:31.691Z,101242.59
2023-09-25T13:04:58.250Z,101243.25
2023-09-25T13:07:24.896Z,101254.03
2023-09-25T13:09:51.304Z,101240.91
2023-09-25T13:12:17.971Z,101242.88
2023-09-25T13:14:44.411Z,101238.75
2023-09-25T13:17:11.479Z,101240.91
2023-09-25T13:19:40.786Z,101243.50
2023-09-25T13:22:20.590Z,101251.84
2023-09-25T13:24:55.739Z,101253.09
2023-09-25T13:27:22.248Z,101245.91
2023-09-25T13:29:48.777Z,101255.47
2023-09-25T13:32:15.192Z,101257.63
2023-09-25T13:34:43.086Z,101249.41
2023-09-25T13:37:09.425Z,101251.38
2023-09-25T13:39:35.908Z,101247.25
2023-09-25T13:42:02.282Z,101242.13
2023-09-25T13:44:28.704Z,101243.88
2023-09-25T13:46:56.167Z,101237.91
2023-09-25T13:51:49.745Z,101237.47
2023-09-25T13:54:16.153Z,101234.06
2023-09-25T13:56:42.588Z,101248.84
2023-09-25T13:59:08.966Z,101240.03
2023-09-25T14:01:36.731Z,101244.84
2023-09-25T14:04:03.461Z,101243.56
2023-09-25T14:06:31.485Z,101234.97
2023-09-25T14:08:57.892Z,101232.28
2023-09-25T14:11:24.424Z,101241.06
2023-09-25T14:13:51.207Z,101237.75
2023-09-25T14:16:18.129Z,101240.34
2023-09-25T14:18:44.673Z,101233.91
2023-09-25T14:21:12.355Z,101239.38
2023-09-25T14:23:40.300Z,101228.09
2023-09-25T14:26:06.699Z,101233.38
2023-09-25T14:28:33.062Z,101229.22
2023-09-25T14:30:59.520Z,101219.59
2023-09-25T14:33:26.069Z,101222.53
2023-09-25T14:35:52.497Z,101226.28
2023-09-25T14:38:18.883Z,101223.56
2023-09-25T14:40:46.017Z,101221.66
2023-09-25T14:43:12.511Z,101225.31
2023-09-25T14:45:39.113Z,101218.03
2023-09-25T14:48:05.980Z,101220.06
2023-09-25T14:50:32.474Z,101225.06
2023-09-25T14:52:59.361Z,101224.97
2023-09-25T14:55:25.762Z,101216.97
2023-09-25T14:57:52.328Z,101218.66
2023-09-25T15:00:19.640Z,101213.59
2023-09-25T15:02:46.154Z,101217.78
2023-09-25T15:05:12.747Z,101220.09
2023-09-25T15:07:39.229Z,101225.56
2023-09-25T15:10:06.621Z,101218.78
2023-09-25T15:12:33.099Z,101217.38
2023-09-25T15:14:59.974Z,101217.38
2023-09-25T15:17:29.133Z,101218.78
2023-09-25T15:19:57.594Z,101212.47
2023-09-25T15:22:26.764Z,101206.75
2023-09-25T15:24:54.739Z,101206.75
2023-09-25T15:27:21.684Z,101206.13
2023-09-25T15:29:51.732Z,101204.59
2023-09-25T15:32:18.231Z,101205.91
2023-09-25T15:34:44.903Z,101205.00
2023-09-25T15:37:11.457Z,101208.75
2023-09-25T15:39:38.546Z,101212.53
2023-09-25T15:42:05.128Z,101207.91
2023-09-25T15:44:31.682Z,101208.75
2023-09-25T15:46:58.242Z,101212.75
2023-09-25T15:49:24.704Z,101207.91
2023-09-25T15:51:51.148Z,101207.06
2023-09-25T15:54:17.519Z,101206.78
2023-09-25T15:56:43.951Z,101204.91
2023-09-25T15:59:11.290Z,101208.88
2023-09-25T16:01:37.949Z,101203.63
2023-09-25T16:04:04.781Z,101203.63
2023-09-25T16:06:31.272Z,101210.00
2023-09-25T16:08:57.628Z,101203.59
2023-09-25T16:11:24.005Z,101210.22
2023-09-25T16:13:50.502Z,101214.91
2023-09-25T16:16:17.112Z,101211.84
2023-09-25T16:18:43.547Z,101211.44
2023-09-25T16:21:10.246Z,101219.72
2023-09-25T16:23:36.570Z,101216.88
2023-09-25T16:26:02.936Z,101214.91
2023-09-25T16:28:29.341Z,101212.53
2023-09-25T16:30:55.748Z,101212.28
2023-09-25T16:33:22.122Z,101218.44
2023-09-25T16:35:48.542Z,101217.97
2023-09-25T16:38:15.008Z,101214.09
2023-09-25T16:40:41.584Z,101212.94
2023-09-25T16:43:08.391Z,101219.31
2023-09-25T16:45:39.295Z,101210.28
2023-09-25T16:48:06.625Z,101213.72
2023-09-25T16:50:35.316Z,101214.09
2023-09-25T16:53:01.835Z,101219.28
2023-09-25T16:55:28.228Z,101218.81
2023-09-25T16:57:54.622Z,101216.16
2023-09-25T17:00:21.306Z,101217.72
2023-09-25T17:02:47.718Z,101217.41
2023-09-25T17:05:14.281Z,101207.97
2023-09-25T17:07:40.745Z,101207.16
2023-09-25T17:10:07.658Z,101209.75
2023-09-25T17:12:34.179Z,101208.28
2023-09-25T17:15:00.656Z,101207.94
2023-09-25T17:17:27.276Z,101199.50
2023-09-25T17:19:54.874Z,101209.41
2023-09-25T17:22:21.752Z,101209.09
2023-09-25T17:24:48.217Z,101218.63
2023-09-25T17:27:17.320Z,101222.66
2023-09-25T17:29:45.373Z,101214.56
2023-09-25T17:32:12.100Z,101222.56
2023-09-25T17:34:39.167Z,101215.25
2023-09-25T17:37:07.007Z,101216.78
2023-09-25T17:39:33.549Z,101221.19
2023-09-25T17:42:00.036Z,101224.63
2023-09-25T17:44:26.622Z,101220.72
2023-09-25T17:46:53.350Z,101224.09
2023-09-25T17:49:20.196Z,101219.88
2023-09-25T17:51:46.889Z,101221.72
2023-09-25T17:54:13.428Z,101228.84
2023-09-25T17:56:40.672Z,101232.03
2023-09-25T17:59:07.225Z,101230.31
2023-09-25T18:01:34.358Z,101238.94
2023-09-25T18:04:01.081Z,101249.28
2023-09-25T18:06:27.582Z,101248.59
2023-09-25T18:08:54.437Z,101244.28
2023-09-25T18:11:20.830Z,101244.25
2023-09-25T18:13:47.231Z,101245.59
2023-09-25T18:16:13.713Z,101253.50
2023-09-25T18:18:40.249Z,101256.34
2023-09-25T18:21:06.787Z,101251.56
2023-09-25T18:23:34.553Z,101258.50
2023-09-25T18:26:02.530Z,101249.31
2023-09-25T18:28:30.067Z,101256.16
2023-09-25T18:30:59.760Z,101262.38
2023-09-25T18:33:26.417Z,101263.88
2023-09-25T18:35:52.768Z,101262.31
2023-09-25T18:38:19.138Z,101267.69
2023-09-25T18:40:45.493Z,101261.19
2023-09-25T18:43:11.957Z,101260.81
2023-09-25T18:45:38.971Z,101262.84
2023-09-25T18:48:05.818Z,101261.09
2023-09-25T18:50:32.588Z,101257.38
2023-09-25T18:52:59.018Z,101258.59
2023-09-25T18:55:25.584Z,101261.94
2023-09-25T18:57:52.062Z,101267.13
2023-09-25T19:00:18.681Z,101262.16
2023-09-25T19:02:45.135Z,101262.81
2023-09-25T19:05:11.614Z,101259.69
2023-09-25T19:07:38.158Z,101266.41
2023-09-25T19:10:05.405Z,101264.34
2023-09-25T19:12:31.881Z,101263.94
2023-09-25T19:14:58.467Z,101263.31
2023-09-25T19:17:25.868Z,101267.31
2023-09-25T19:19:52.621Z,101258.25
2023-09-25T19:22:19.043Z,101269.69
2023-09-25T19:24:45.541Z,101269.28
2023-09-25T19:27:12.084Z,101267.94
2023-09-25T19:29:38.408Z,101272.25
2023-09-25T19:32:05.066Z,101270.94
2023-09-25T19:34:31.670Z,101273.97
2023-09-25T19:36:58.322Z,101274.25
2023-09-25T19:39:24.897Z,101277.41
2023-09-25T19:41:51.283Z,101269.56
2023-09-25T19:44:17.797Z,101276.28
2023-09-25T19:46:44.555Z,101277.19
2023-09-25T19:49:11.213Z,101273.84
2023-09-25T19:51:39.588Z,101271.72
2023-09-25T19:54:07.649Z,101271.75
2023-09-25T19:56:34.131Z,101270.06
2023-09-25T19:59:00.576Z,101277.59
2023-09-25T20:01:27.281Z,101271.66
2023-09-25T20:03:53.936Z,101280.59
2023-09-25T20:06:20.504Z,101283.88
2023-09-25T20:08:46.958Z,101276.78
2023-09-25T20:11:13.435Z,101282.88
2023-09-25T20:13:39.904Z,101270.22
2023-09-25T20:16:06.489Z,101277.03
2023-09-25T20:18:33.194Z,101267.69
2023-09-25T20:20:59.718Z,101273.34
2023-09-25T20:23:27.136Z,101278.63
2023-09-25T20:25:54.173Z,101270.25
2023-09-25T20:28:20.848Z,101273.94
2023-09-25T20:30:47.287Z,101271.66
2023-09-25T20:33:13.686Z,101269.53
2023-09-25T20:35:40.317Z,101266.00
2023-09-25T20:38:06.774Z,101267.69
2023-09-25T20:40:33.196Z,101257.59
2023-09-25T20:42:59.726Z,101259.44
2023-09-25T20:45:27.036Z,101271.38
2023-09-25T20:47:55.547Z,101260.88
2023-09-25T20:50:26.600Z,101264.00
2023-09-25T20:52:57.086Z,101258.59
2023-09-25T20:55:23.954Z,101268.78
2023-09-25T20:57:50.999Z,101263.53
2023-09-25T21:00:17.894Z,101258.56
2023-09-25T21:02:44.409Z,101263.28
2023-09-25T21:05:11.306Z,101259.97
2023-09-25T21:07:38.198Z,101261.38
2023-09-25T21:10:05.057Z,101269.59
2023-09-25T21:12:31.600Z,101272.75
2023-09-25T21:14:58.142Z,101268.06
2023-09-25T21:17:24.741Z,101269.19
2023-09-25T21:19:51.119Z,101257.66
2023-09-25T21:22:17.555Z,101259.78
2023-09-25T21:24:43.963Z,101255.53
2023-09-25T21:27:10.358Z,101257.94
2023-09-25T21:29:37.911Z,101265.88
2023-09-25T21:32:04.826Z,101261.00
2023-09-25T21:34:32.117Z,101267.34
2023-09-25T21:36:58.517Z,101269.03
2023-09-25T21:39:24.980Z,101259.22
2023-09-25T21:41:51.420Z,101257.25
2023-09-25T21:44:17.803Z,101252.84
2023-09-25T21:46:44.485Z,101257.84
2023-09-25T21:49:11.062Z,101246.28
2023-09-25T21:51:37.694Z,101250.16
2023-09-25T21:54:06.141Z,101256.22
2023-09-25T21:56:32.732Z,101249.25
2023-09-25T21:58:59.084Z,101252.66
2023-09-25T22:01:25.616Z,101252.25
2023-09-25T22:03:52.483Z,101254.94
2023-09-25T22:06:19.206Z,101251.63
2023-09-25T22:08:45.554Z,101248.09
2023-09-25T22:11:12.011Z,101247.25
2023-09-25T22:13:38.492Z,101248.63
2023-09-25T22:16:08.952Z,101241.47
2023-09-25T22:18:36.056Z,101239.94
2023-09-25T22:21:03.289Z,101231.66
2023-09-25T22:23:29.796Z,101233.03
2023-09-25T22:25:56.380Z,101234.63
2023-09-25T22:28:23.519Z,101228.31
2023-09-25T22:30:49.999Z,101230.44
2023-09-25T22:33:16.400Z,101228.72
2023-09-25T22:35:42.994Z,101229.56
2023-09-25T22:38:11.994Z,101232.53
2023-09-25T22:40:42.045Z,101239.72
2023-09-25T22:43:09.496Z,101233.19
2023-09-25T22:45:36.552Z,101224.31
2023-09-25T22:48:03.818Z,101231.09
2023-09-25T22:50:31.682Z,101221.97
2023-09-25T22:52:58.198Z,101223.09
2023-09-25T22:55:25.283Z,101218.41
2023-09-25T22:57:52.012Z,101234.84
2023-09-25T23:00:18.580Z,101229.13
2023-09-25T23:02:48.092Z,101235.50
2023-09-25T23:05:15.562Z,101232.53
2023-09-25T23:07:45.608Z,101238.41
2023-09-25T23:10:13.070Z,101232.47
2023-09-25T23:12:39.899Z,101222.47
2023-09-25T23:15:09.443Z,101224.56
2023-09-25T23:17:35.824Z,101230.47
2023-09-25T23:20:02.267Z,101230.69
2023-09-25T23:22:29.744Z,101220.91
2023-09-25T23:24:56.146Z,101234.03
2023-09-25T23:27:22.758Z,101226.16
2023-09-25T23:29:49.249Z,101230.09
2023-09-25T23:32:15.669Z,101237.31
2023-09-25T23:34:42.028Z,101236.91
2023-09-25T23:37:09.249Z,101236.19
2023-09-25T23:39:35.654Z,101234.75
2023-09-25T23:42:02.124Z,101237.25
2023-09-25T23:44:28.594Z,101235.03
2023-09-25T23:46:55.226Z,101231.78
2023-09-25T23:49:21.773Z,101235.09
2023-09-25T23:51:48.273Z,101227.78
2023-09-25T23:54:15.071Z,101227.16
2023-09-25T23:56:41.556Z,101237.91
2023-09-25T23:59:08.005Z,101233.88
